Time;durP1;ratioP1;P1;durP2;ratioP2;P2;SDS_P1;SDS_P2;PMS_P1;PMS_P2;Temp;Humidity;BMP_temperature;BMP_pressure;BME280_temperature;BME280_humidity;BME280_pressure;Samples;Min_cycle;Max_cycle;Signal;HPM_P1;HPM_P2
2023/04/13 00:00:40;;;;;;;7.38;3.60;;;4.90;99.90;;;;;;5067472;28;20060;-67
2023/04/13 00:03:24;;;;;;;5.85;4.10;;;5.00;99.90;;;;;;5067610;28;20043;-68
2023/04/13 00:05:52;;;;;;;6.35;4.05;;;5.00;99.90;;;;;;5070380;28;20115;-68
2023/04/13 00:08:21;;;;;;;6.20;4.10;;;5.00;99.90;;;;;;5065952;28;20450;-67
2023/04/13 00:10:47;;;;;;;5.75;4.30;;;5.10;99.90;;;;;;5066560;28;20102;-67
2023/04/13 00:13:13;;;;;;;4.78;4.13;;;5.10;99.90;;;;;;5065982;28;21715;-67
2023/04/13 00:15:43;;;;;;;7.35;4.18;;;5.20;99.90;;;;;;5067000;28;20108;-67
2023/04/13 00:18:09;;;;;;;5.00;3.88;;;5.20;99.90;;;;;;5066644;28;20028;-67
2023/04/13 00:20:36;;;;;;;6.57;3.75;;;5.20;99.90;;;;;;5071926;28;20044;-67
2023/04/13 00:23:02;;;;;;;9.05;4.25;;;5.20;99.90;;;;;;5071394;28;20459;-67
2023/04/13 00:25:28;;;;;;;5.28;3.33;;;5.20;99.90;;;;;;5069541;28;20042;-67
2023/04/13 00:27:53;;;;;;;7.53;3.63;;;5.30;99.90;;;;;;5070871;28;20422;-67
2023/04/13 00:30:20;;;;;;;5.78;3.85;;;5.30;99.90;;;;;;5073126;28;20041;-67
2023/04/13 00:32:46;;;;;;;6.90;3.78;;;5.30;99.90;;;;;;5070501;28;20040;-67
2023/04/13 00:35:15;;;;;;;5.47;3.65;;;5.30;99.90;;;;;;5070988;28;20504;-67
2023/04/13 00:37:42;;;;;;;7.07;3.67;;;5.30;99.90;;;;;;5069520;28;20077;-68
2023/04/13 00:40:09;;;;;;;8.50;3.95;;;5.30;99.90;;;;;;5071630;28;20079;-67
2023/04/13 00:42:35;;;;;;;5.22;3.97;;;5.30;99.90;;;;;;5068473;28;20036;-67
2023/04/13 00:45:01;;;;;;;5.80;3.70;;;5.30;99.90;;;;;;5063564;28;20039;-67
2023/04/13 00:47:31;;;;;;;6.07;4.10;;;5.30;99.90;;;;;;5070387;28;20032;-67
2023/04/13 00:50:00;;;;;;;4.60;3.53;;;5.40;99.90;;;;;;5067270;28;20055;-68
2023/04/13 00:52:26;;;;;;;5.05;3.78;;;5.40;99.90;;;;;;5066114;28;20033;-67
2023/04/13 00:54:55;;;;;;;4.93;3.55;;;5.40;99.90;;;;;;5061934;28;20042;-67
2023/04/13 00:57:22;;;;;;;6.78;4.10;;;5.50;99.90;;;;;;5064815;28;20056;-67
2023/04/13 00:59:49;;;;;;;4.50;3.00;;;5.60;99.90;;;;;;5064608;28;20555;-67
2023/04/13 01:02:15;;;;;;;5.72;3.05;;;5.60;99.90;;;;;;5062476;28;20040;-68
2023/04/13 01:04:44;;;;;;;3.50;2.70;;;5.60;99.90;;;;;;5066037;28;20032;-67
2023/04/13 01:07:22;;;;;;;4.93;2.65;;;5.70;99.90;;;;;;5080888;28;20033;-67
2023/04/13 01:10:09;;;;;;;5.47;2.83;;;5.70;99.90;;;;;;5065853;28;20029;-67
2023/04/13 01:12:47;;;;;;;3.88;2.70;;;5.70;99.90;;;;;;5064774;28;20041;-68
2023/04/13 01:15:15;;;;;;;4.20;2.80;;;5.60;99.90;;;;;;5065306;28;20039;-67
2023/04/13 01:17:50;;;;;;;4.85;2.95;;;5.60;99.90;;;;;;5066088;28;21923;-68
2023/04/13 01:20:19;;;;;;;3.97;2.70;;;5.50;99.90;;;;;;5064930;28;20432;-68
2023/04/13 01:22:54;;;;;;;5.82;3.28;;;5.50;99.90;;;;;;5044558;28;20040;-68
2023/04/13 01:25:35;;;;;;;3.35;2.80;;;5.40;99.90;;;;;;5064234;28;20405;-69
2023/04/13 01:28:08;;;;;;;4.65;2.90;;;5.40;99.90;;;;;;5079701;28;20036;-69
2023/04/13 01:30:36;;;;;;;2.95;2.40;;;5.40;99.90;;;;;;5044914;28;20037;-68
2023/04/13 01:33:03;;;;;;;4.90;2.75;;;5.30;99.90;;;;;;5061781;28;20044;-68
2023/04/13 01:35:29;;;;;;;8.18;2.80;;;5.30;99.90;;;;;;5066466;28;20036;-68
2023/04/13 01:37:56;;;;;;;6.00;2.53;;;5.30;99.90;;;;;;5066240;28;20032;-68
2023/04/13 01:40:23;;;;;;;5.13;2.38;;;5.30;99.90;;;;;;5063496;28;20067;-68
2023/04/13 01:42:49;;;;;;;4.82;2.70;;;5.30;99.90;;;;;;5059679;28;20555;-69
2023/04/13 01:45:25;;;;;;;4.28;2.80;;;5.30;99.90;;;;;;5065046;28;20037;-69
2023/04/13 01:48:14;;;;;;;3.65;2.33;;;5.30;99.90;;;;;;5065467;28;20115;-69
2023/04/13 01:50:42;;;;;;;4.82;2.45;;;5.30;99.90;;;;;;5047133;28;20055;-69
2023/04/13 01:53:16;;;;;;;3.25;2.30;;;5.30;99.90;;;;;;5064870;28;20087;-69
2023/04/13 01:55:44;;;;;;;6.55;2.88;;;5.20;99.90;;;;;;5071675;28;20089;-68
2023/04/13 01:58:12;;;;;;;4.20;2.53;;;5.30;99.90;;;;;;5043893;28;20249;-68
2023/04/13 02:00:40;;;;;;;5.95;2.65;;;5.20;99.90;;;;;;5064733;28;20145;-69
2023/04/13 02:03:07;;;;;;;6.03;2.65;;;5.30;99.90;;;;;;5074397;28;20098;-69
2023/04/13 02:05:36;;;;;;;3.53;2.53;;;5.40;99.90;;;;;;5065711;28;20071;-68
2023/04/13 02:08:04;;;;;;;4.50;2.72;;;5.20;99.90;;;;;;5064802;28;20047;-68
2023/04/13 02:10:35;;;;;;;6.63;2.67;;;5.30;99.90;;;;;;5065907;28;20059;-68
2023/04/13 02:13:02;;;;;;;6.00;2.78;;;5.30;99.90;;;;;;5064267;28;20043;-69
2023/04/13 02:15:30;;;;;;;4.60;2.50;;;5.30;99.90;;;;;;5065452;28;20052;-69
2023/04/13 02:17:55;;;;;;;6.05;3.35;;;5.30;99.90;;;;;;5065402;28;20071;-69
2023/04/13 02:20:21;;;;;;;5.75;2.75;;;5.30;99.90;;;;;;5062378;28;20091;-69
2023/04/13 02:22:47;;;;;;;5.90;2.38;;;5.30;99.90;;;;;;5063587;28;20040;-69
2023/04/13 02:25:17;;;;;;;4.30;2.70;;;5.30;99.90;;;;;;5062507;28;20390;-69
2023/04/13 02:27:44;;;;;;;4.22;2.80;;;5.30;99.90;;;;;;5060340;28;20083;-69
2023/04/13 02:30:10;;;;;;;4.63;2.25;;;5.30;99.90;;;;;;5061718;28;20051;-69
2023/04/13 02:32:39;;;;;;;3.92;2.38;;;5.20;99.90;;;;;;5063831;28;20037;-69
2023/04/13 02:35:09;;;;;;;5.25;3.05;;;5.20;99.90;;;;;;5065303;28;20315;-69
2023/04/13 02:37:38;;;;;;;5.60;2.63;;;5.20;99.90;;;;;;5063635;28;20036;-69
2023/04/13 02:40:07;;;;;;;4.20;2.70;;;5.20;99.90;;;;;;5064760;28;20082;-69
2023/04/13 02:42:33;;;;;;;4.15;2.80;;;5.20;99.90;;;;;;5063863;28;20044;-70
2023/04/13 02:44:58;;;;;;;4.07;2.83;;;5.20;99.90;;;;;;5057657;28;20081;-69
2023/04/13 02:47:25;;;;;;;5.93;2.65;;;5.20;99.90;;;;;;5063918;28;20397;-69
2023/04/13 02:49:51;;;;;;;5.53;2.85;;;5.20;99.90;;;;;;5064024;28;20049;-69
2023/04/13 02:52:16;;;;;;;8.30;3.25;;;5.20;99.90;;;;;;5064577;28;20093;-69
2023/04/13 02:54:42;;;;;;;3.78;2.58;;;5.20;99.90;;;;;;5063514;28;20032;-70
2023/04/13 02:57:12;;;;;;;5.65;2.75;;;5.20;99.90;;;;;;5064000;28;20538;-70
2023/04/13 02:59:40;;;;;;;5.43;3.20;;;5.20;99.90;;;;;;5063326;28;20048;-69
2023/04/13 03:02:07;;;;;;;6.22;3.13;;;5.20;99.90;;;;;;5064663;28;20041;-70
2023/04/13 03:04:33;;;;;;;6.60;2.80;;;5.20;99.90;;;;;;5062881;28;21100;-69
2023/04/13 03:06:59;;;;;;;3.80;2.40;;;5.20;99.90;;;;;;5062842;28;20037;-69
2023/04/13 03:09:25;;;;;;;3.03;2.35;;;5.20;99.90;;;;;;5065369;28;20097;-70
2023/04/13 03:11:51;;;;;;;7.63;3.20;;;5.30;99.90;;;;;;5061598;28;20036;-69
2023/04/13 03:14:22;;;;;;;3.97;2.45;;;5.30;99.90;;;;;;5064551;28;20486;-69
2023/04/13 03:16:48;;;;;;;7.60;2.60;;;5.30;99.90;;;;;;5067446;28;20040;-70
2023/04/13 03:19:17;;;;;;;5.95;2.90;;;5.30;99.90;;;;;;5069155;28;20309;-69
2023/04/13 03:21:43;;;;;;;5.20;2.33;;;5.30;99.90;;;;;;5065367;28;20602;-69
2023/04/13 03:24:10;;;;;;;4.05;2.65;;;5.30;99.90;;;;;;5067858;28;20036;-69
2023/04/13 03:26:36;;;;;;;5.75;2.67;;;5.40;99.90;;;;;;5066530;28;20036;-69
2023/04/13 03:29:02;;;;;;;9.25;3.50;;;5.40;99.90;;;;;;5066652;28;20029;-69
2023/04/13 03:31:29;;;;;;;5.13;2.70;;;5.30;99.90;;;;;;5067848;28;20443;-69
2023/04/13 03:33:57;;;;;;;4.60;2.75;;;5.30;99.90;;;;;;5064139;28;20067;-69
2023/04/13 03:36:23;;;;;;;6.05;2.75;;;5.30;99.90;;;;;;5063854;28;20073;-69
2023/04/13 03:38:49;;;;;;;5.45;3.17;;;5.30;99.90;;;;;;5067043;28;20426;-69
2023/04/13 03:41:15;;;;;;;6.18;3.05;;;5.40;99.90;;;;;;5067876;28;20047;-69
2023/04/13 03:43:41;;;;;;;7.38;2.95;;;5.40;99.90;;;;;;5066321;28;20041;-69
2023/04/13 03:46:06;;;;;;;7.03;3.10;;;5.40;99.90;;;;;;5067596;28;20425;-68
2023/04/13 03:48:33;;;;;;;5.78;3.05;;;5.40;99.90;;;;;;5066589;28;20090;-69
2023/04/13 03:50:58;;;;;;;7.88;2.88;;;5.40;99.90;;;;;;5065129;28;20037;-69
2023/04/13 03:53:25;;;;;;;4.18;2.90;;;5.40;99.90;;;;;;5066615;28;20051;-69
2023/04/13 03:55:51;;;;;;;6.47;3.03;;;5.40;99.90;;;;;;5067122;28;20033;-68
2023/04/13 03:58:17;;;;;;;8.07;3.50;;;5.40;99.90;;;;;;5062323;28;20059;-69
2023/04/13 04:00:43;;;;;;;4.68;3.38;;;5.50;99.90;;;;;;5064663;28;20036;-69
2023/04/13 04:03:09;;;;;;;4.97;3.30;;;5.50;99.90;;;;;;5065693;28;20037;-69
2023/04/13 04:05:37;;;;;;;5.10;3.25;;;5.50;99.90;;;;;;5066712;28;20032;-68
2023/04/13 04:08:03;;;;;;;7.70;3.28;;;5.50;99.90;;;;;;5083779;28;20129;-70
2023/04/13 04:10:29;;;;;;;3.83;2.60;;;5.60;99.90;;;;;;5067811;28;20516;-69
2023/04/13 04:12:56;;;;;;;5.88;3.17;;;5.60;99.90;;;;;;5066049;28;20190;-68
2023/04/13 04:15:22;;;;;;;4.75;3.17;;;5.60;99.90;;;;;;5057254;28;20497;-68
2023/04/13 04:17:48;;;;;;;5.43;2.90;;;5.60;99.90;;;;;;5049802;28;20040;-69
2023/04/13 04:20:15;;;;;;;6.20;2.78;;;5.60;99.90;;;;;;5068056;28;20042;-69
2023/04/13 04:22:43;;;;;;;4.18;3.03;;;5.60;99.90;;;;;;5063691;28;20075;-69
2023/04/13 04:25:09;;;;;;;6.45;2.85;;;5.60;99.90;;;;;;5067144;28;20036;-69
2023/04/13 04:27:37;;;;;;;4.13;2.35;;;5.70;99.90;;;;;;5063428;28;20394;-69
2023/04/13 04:30:09;;;;;;;3.92;2.40;;;5.70;99.90;;;;;;5064798;28;20032;-69
2023/04/13 04:32:35;;;;;;;10.95;4.15;;;5.70;99.90;;;;;;5065019;28;20040;-68
2023/04/13 04:35:03;;;;;;;8.05;3.42;;;5.70;99.90;;;;;;5067312;28;20048;-69
2023/04/13 04:37:36;;;;;;;4.70;2.90;;;5.70;99.90;;;;;;5066081;28;20048;-68
2023/04/13 04:40:06;;;;;;;;;;;5.80;99.90;;;;;;5067530;28;20045;-69
2023/04/13 04:42:32;;;;;;;4.68;2.83;;;5.70;99.90;;;;;;5060596;28;19928;-68
2023/04/13 04:44:58;;;;;;;5.20;2.65;;;5.80;99.90;;;;;;5061371;28;20059;-69
2023/04/13 04:47:24;;;;;;;6.68;3.00;;;5.80;99.90;;;;;;5066626;28;20142;-69
2023/04/13 04:49:50;;;;;;;4.68;2.60;;;5.80;99.90;;;;;;5066456;28;20374;-69
2023/04/13 04:52:16;;;;;;;4.82;2.78;;;5.80;99.90;;;;;;5064787;28;20045;-68
2023/04/13 04:54:41;;;;;;;7.10;3.20;;;5.80;99.90;;;;;;5064365;28;20040;-68
2023/04/13 04:57:09;;;;;;;5.53;3.20;;;5.80;99.90;;;;;;5066164;28;20354;-68
2023/04/13 04:59:35;;;;;;;7.13;3.22;;;5.80;99.90;;;;;;5046156;28;20071;-67
2023/04/13 05:02:01;;;;;;;6.18;3.70;;;5.80;99.90;;;;;;5065478;28;20048;-68
2023/04/13 05:04:26;;;;;;;8.48;3.60;;;5.80;99.90;;;;;;5067037;28;20047;-67
2023/04/13 05:06:52;;;;;;;5.15;3.25;;;5.70;99.90;;;;;;5064749;28;20132;-68
2023/04/13 05:09:19;;;;;;;6.78;3.10;;;5.70;99.90;;;;;;5064758;28;20111;-67
2023/04/13 05:11:45;;;;;;;6.38;2.97;;;5.70;99.90;;;;;;5066309;28;20146;-67
2023/04/13 05:14:10;;;;;;;4.95;3.10;;;5.70;99.90;;;;;;5065736;28;20536;-67
2023/04/13 05:16:36;;;;;;;4.70;2.80;;;5.70;99.90;;;;;;5066912;28;20044;-67
2023/04/13 05:19:02;;;;;;;5.45;3.17;;;5.70;99.90;;;;;;5075653;28;20078;-68
2023/04/13 05:21:28;;;;;;;4.30;3.00;;;5.60;99.90;;;;;;5058343;28;20036;-67
2023/04/13 05:23:53;;;;;;;4.40;2.95;;;5.60;99.90;;;;;;5064517;28;20036;-68
2023/04/13 05:26:19;;;;;;;6.45;3.35;;;5.60;99.90;;;;;;5046111;28;20047;-68
2023/04/13 05:28:45;;;;;;;4.88;3.10;;;5.50;99.90;;;;;;5064469;28;20039;-68
2023/04/13 05:31:10;;;;;;;6.88;3.38;;;5.50;99.90;;;;;;5063977;28;20411;-68
2023/04/13 05:33:36;;;;;;;6.60;3.45;;;5.50;99.90;;;;;;5056051;28;20120;-68
2023/04/13 05:36:03;;;;;;;5.60;3.30;;;5.50;99.90;;;;;;5063116;28;20059;-67
2023/04/13 05:38:29;;;;;;;6.53;3.67;;;5.50;99.90;;;;;;5065324;28;20043;-68
2023/04/13 05:40:56;;;;;;;6.95;3.35;;;5.50;99.90;;;;;;5065753;28;20039;-67
2023/04/13 05:43:22;;;;;;;5.88;3.70;;;5.50;99.90;;;;;;5063560;28;20094;-67
2023/04/13 05:45:48;;;;;;;8.60;4.63;;;5.50;99.90;;;;;;5063538;28;20052;-67
2023/04/13 05:48:14;;;;;;;6.00;3.40;;;5.50;99.90;;;;;;5063393;28;20067;-68
2023/04/13 05:50:39;;;;;;;9.05;3.97;;;5.50;99.90;;;;;;5061789;28;20068;-68
2023/04/13 05:53:05;;;;;;;7.72;4.07;;;5.60;99.90;;;;;;5062104;28;20040;-67
2023/04/13 05:55:31;;;;;;;8.27;4.20;;;5.60;99.90;;;;;;5064401;28;20501;-67
2023/04/13 05:57:59;;;;;;;6.82;4.47;;;5.70;99.90;;;;;;5060704;28;20072;-68
2023/04/13 06:00:26;;;;;;;8.85;4.82;;;5.70;99.90;;;;;;5061550;28;20048;-67
2023/04/13 06:02:52;;;;;;;10.57;5.45;;;5.80;99.90;;;;;;5060309;28;20036;-67
2023/04/13 06:05:18;;;;;;;15.63;5.88;;;5.80;99.90;;;;;;5059153;28;20428;-67
2023/04/13 06:07:45;;;;;;;15.48;5.50;;;5.80;99.90;;;;;;5062678;28;20041;-67
2023/04/13 06:10:15;;;;;;;11.68;5.25;;;5.90;99.90;;;;;;5056253;28;20049;-67
2023/04/13 06:12:47;;;;;;;11.15;5.50;;;5.90;99.90;;;;;;5050108;28;20036;-67
2023/04/13 06:15:13;;;;;;;7.88;4.60;;;6.10;99.90;;;;;;5047432;28;21417;-68
2023/04/13 06:17:39;;;;;;;8.02;4.72;;;6.20;99.90;;;;;;5052506;28;20045;-67
2023/04/13 06:20:06;;;;;;;8.25;4.80;;;6.30;99.90;;;;;;5047834;28;21573;-67
2023/04/13 06:22:32;;;;;;;10.63;5.03;;;6.30;99.90;;;;;;5049913;28;20105;-67
2023/04/13 06:24:58;;;;;;;10.60;4.90;;;6.30;99.90;;;;;;5049689;28;20048;-67
2023/04/13 06:27:25;;;;;;;5.95;3.88;;;6.30;99.90;;;;;;5050475;28;20068;-67
2023/04/13 06:29:51;;;;;;;6.82;4.25;;;6.30;99.90;;;;;;5049041;28;20040;-67
2023/04/13 06:32:17;;;;;;;12.73;4.55;;;6.20;99.90;;;;;;5052405;28;20056;-67
2023/04/13 06:34:44;;;;;;;6.82;4.28;;;6.30;99.90;;;;;;5042108;28;20049;-67
2023/04/13 06:37:10;;;;;;;10.10;5.55;;;6.40;99.90;;;;;;5050235;28;20087;-67
2023/04/13 06:39:36;;;;;;;9.23;4.93;;;6.50;99.90;;;;;;5030631;28;20047;-67
2023/04/13 06:42:05;;;;;;;12.98;4.75;;;6.60;99.90;;;;;;5050431;28;20036;-67
2023/04/13 06:44:31;;;;;;;11.88;4.60;;;6.70;99.90;;;;;;5053300;28;20054;-67
2023/04/13 06:46:57;;;;;;;8.27;4.28;;;6.70;99.90;;;;;;5048794;28;20490;-67
2023/04/13 06:49:22;;;;;;;7.13;4.10;;;6.70;99.90;;;;;;5055530;28;20080;-67
2023/04/13 06:51:48;;;;;;;12.52;4.68;;;6.80;99.90;;;;;;5025263;28;20041;-68
2023/04/13 06:54:14;;;;;;;9.35;4.50;;;6.80;99.90;;;;;;5057835;28;20029;-67
2023/04/13 06:56:40;;;;;;;7.13;4.32;;;6.80;99.90;;;;;;5021404;28;20036;-67
2023/04/13 06:59:06;;;;;;;7.03;3.95;;;6.90;99.90;;;;;;5054185;28;20053;-67
2023/04/13 07:01:31;;;;;;;6.30;4.32;;;6.90;99.90;;;;;;5057452;28;20136;-67
2023/04/13 07:03:57;;;;;;;8.20;4.20;;;7.00;99.90;;;;;;5069695;28;20041;-67
2023/04/13 07:06:23;;;;;;;10.13;3.80;;;7.20;99.90;;;;;;5066329;28;20043;-66
2023/04/13 07:08:49;;;;;;;10.40;4.10;;;7.20;99.90;;;;;;5070760;28;20045;-66
2023/04/13 07:11:15;;;;;;;12.13;4.65;;;7.30;99.90;;;;;;5069747;28;20028;-67
2023/04/13 07:13:41;;;;;;;5.68;3.78;;;7.40;99.90;;;;;;5065868;28;20460;-67
2023/04/13 07:16:07;;;;;;;9.75;4.90;;;7.40;99.90;;;;;;5070463;28;20481;-68
2023/04/13 07:18:33;;;;;;;8.27;3.83;;;7.50;99.90;;;;;;5063860;28;20055;-68
2023/04/13 07:21:00;;;;;;;10.63;3.80;;;7.60;99.90;;;;;;5073102;28;20097;-67
2023/04/13 07:23:25;;;;;;;10.02;3.60;;;7.70;99.90;;;;;;5074678;28;20127;-67
2023/04/13 07:25:51;;;;;;;5.68;3.28;;;8.00;99.90;;;;;;5074472;28;20120;-67
2023/04/13 07:28:17;;;;;;;6.05;3.70;;;8.20;99.90;;;;;;5077327;28;20083;-67
2023/04/13 07:30:43;;;;;;;4.78;3.47;;;8.20;99.90;;;;;;5075605;28;20033;-67
2023/04/13 07:33:09;;;;;;;6.95;3.53;;;8.10;99.90;;;;;;5090499;28;20116;-67
2023/04/13 07:35:36;;;;;;;5.88;3.35;;;8.00;99.90;;;;;;5075874;28;20046;-67
2023/04/13 07:38:02;;;;;;;8.20;3.65;;;7.90;99.90;;;;;;5075364;28;20116;-67
2023/04/13 07:40:27;;;;;;;12.88;3.83;;;8.00;99.90;;;;;;5075954;28;20513;-67
2023/04/13 07:42:53;;;;;;;4.43;3.42;;;8.20;99.90;;;;;;5075270;28;20044;-67
2023/04/13 07:45:19;;;;;;;8.65;3.65;;;8.20;99.90;;;;;;5056429;28;20037;-67
2023/04/13 07:47:46;;;;;;;11.02;3.50;;;8.50;99.90;;;;;;5073800;28;20036;-67
2023/04/13 07:50:12;;;;;;;7.20;3.83;;;8.80;99.90;;;;;;5074259;28;20029;-67
2023/04/13 07:52:38;;;;;;;7.32;3.38;;;9.10;99.90;;;;;;5074735;28;20040;-67
2023/04/13 07:55:05;;;;;;;7.18;3.33;;;9.30;99.90;;;;;;5074107;28;20064;-67
2023/04/13 07:57:32;;;;;;;9.07;3.03;;;9.00;99.90;;;;;;5074925;28;20049;-67
2023/04/13 07:59:58;;;;;;;6.60;2.97;;;8.80;99.90;;;;;;5075147;28;20048;-67
2023/04/13 08:02:24;;;;;;;4.70;2.80;;;8.80;99.90;;;;;;5072139;28;20439;-67
2023/04/13 08:04:51;;;;;;;5.32;2.40;;;8.60;99.90;;;;;;5071191;28;20842;-67
2023/04/13 08:07:17;;;;;;;6.18;2.50;;;8.50;99.90;;;;;;5071801;28;20037;-67
2023/04/13 08:09:45;;;;;;;4.70;1.90;;;8.60;99.90;;;;;;5071672;28;20032;-67
2023/04/13 08:12:11;;;;;;;3.65;2.42;;;8.80;99.90;;;;;;5071465;28;20421;-67
2023/04/13 08:14:36;;;;;;;3.63;2.13;;;8.90;99.90;;;;;;5070171;28;20047;-67
2023/04/13 08:17:04;;;;;;;5.78;2.10;;;8.60;99.90;;;;;;5070473;28;20472;-67
2023/04/13 08:19:31;;;;;;;4.53;2.30;;;8.60;99.90;;;;;;5058770;28;20405;-67
2023/04/13 08:21:57;;;;;;;5.15;2.20;;;8.80;99.90;;;;;;5071710;28;20107;-67
2023/04/13 08:24:24;;;;;;;2.85;1.63;;;9.30;99.90;;;;;;5070011;28;20024;-67
2023/04/13 08:26:51;;;;;;;2.35;2.15;;;9.90;99.90;;;;;;5071813;28;20024;-67
2023/04/13 08:29:16;;;;;;;5.47;2.00;;;10.00;99.90;;;;;;5071528;28;20103;-67
2023/04/13 08:31:42;;;;;;;4.72;1.90;;;10.60;99.90;;;;;;5069758;28;20123;-67
2023/04/13 08:34:12;;;;;;;4.05;2.17;;;10.80;99.90;;;;;;5071595;28;20080;-67
2023/04/13 08:36:38;;;;;;;6.07;2.40;;;11.00;99.90;;;;;;5071577;28;20036;-67
2023/04/13 08:39:08;;;;;;;7.10;2.50;;;11.10;99.90;;;;;;5069591;28;20033;-67
2023/04/13 08:41:39;;;;;;;2.60;2.00;;;11.50;99.90;;;;;;5069581;28;20040;-67
2023/04/13 08:44:07;;;;;;;6.07;2.97;;;11.60;99.90;;;;;;5071128;28;20398;-67
2023/04/13 08:46:33;;;;;;;6.15;2.60;;;10.90;99.90;;;;;;5069853;28;20033;-67
2023/04/13 08:49:00;;;;;;;4.28;3.00;;;10.90;99.90;;;;;;5071079;28;20036;-67
2023/04/13 08:51:28;;;;;;;6.32;3.20;;;10.50;99.90;;;;;;5071122;28;20568;-67
2023/04/13 08:53:55;;;;;;;4.30;2.70;;;10.00;99.90;;;;;;5071395;28;20091;-67
2023/04/13 08:56:22;;;;;;;5.70;3.20;;;9.50;99.90;;;;;;5069899;28;20052;-67
2023/04/13 08:58:49;;;;;;;6.38;3.42;;;9.00;99.90;;;;;;5070696;28;20066;-67
2023/04/13 09:01:16;;;;;;;6.88;3.97;;;8.90;99.90;;;;;;5071281;28;20040;-66
2023/04/13 09:03:58;;;;;;;6.68;3.28;;;8.70;99.90;;;;;;5068961;28;20041;-67
2023/04/13 09:06:32;;;;;;;8.48;3.88;;;8.60;99.90;;;;;;5069122;28;20029;-67
2023/04/13 09:08:58;;;;;;;5.45;3.90;;;8.50;99.90;;;;;;5070893;28;20048;-66
2023/04/13 09:11:24;;;;;;;5.82;3.92;;;8.40;99.90;;;;;;5069088;28;20052;-66
2023/04/13 09:13:51;;;;;;;10.15;3.50;;;8.40;99.90;;;;;;5052426;28;20046;-67
2023/04/13 09:16:21;;;;;;;5.28;3.72;;;8.40;99.90;;;;;;5068534;28;20498;-67
2023/04/13 09:18:56;;;;;;;7.15;4.13;;;8.30;99.90;;;;;;5069548;28;20036;-67
2023/04/13 09:21:34;;;;;;;6.55;4.35;;;8.30;99.90;;;;;;5068589;28;20040;-66
2023/04/13 09:24:00;;;;;;;7.38;3.70;;;8.10;99.90;;;;;;5070796;28;20401;-68
2023/04/13 09:26:27;;;;;;;8.63;4.25;;;7.90;99.90;;;;;;5068456;28;20083;-68
2023/04/13 09:28:56;;;;;;;6.32;4.28;;;7.80;99.90;;;;;;5069318;28;20040;-69
2023/04/13 09:31:22;;;;;;;7.05;4.28;;;7.60;99.90;;;;;;5070244;28;20036;-69
2023/04/13 09:33:50;;;;;;;4.55;2.65;;;7.60;99.90;;;;;;5068622;28;20093;-70
2023/04/13 09:36:19;;;;;;;4.85;1.85;;;7.50;99.90;;;;;;5070133;28;20089;-69
2023/04/13 09:38:55;;;;;;;2.75;1.50;;;7.30;99.90;;;;;;5068709;28;20552;-70
2023/04/13 09:41:32;;;;;;;2.50;1.20;;;7.00;99.90;;;;;;5070196;28;20040;-70
2023/04/13 09:44:19;;;;;;;1.88;1.23;;;6.70;99.90;;;;;;5034711;28;20080;-70
2023/04/13 09:46:57;;;;;;;6.13;1.40;;;6.50;99.90;;;;;;5068036;28;20037;-70
2023/04/13 09:49:24;;;;;;;1.77;0.80;;;6.30;99.90;;;;;;5062130;28;20075;-70
2023/04/13 09:51:50;;;;;;;1.95;0.90;;;6.20;99.90;;;;;;5069788;28;20036;-70
2023/04/13 09:54:20;;;;;;;0.55;0.55;;;6.10;99.90;;;;;;5070323;28;20037;-70
2023/04/13 09:56:51;;;;;;;1.13;0.85;;;6.10;99.90;;;;;;5069687;28;20077;-70
2023/04/13 09:59:24;;;;;;;2.30;1.00;;;6.30;99.90;;;;;;5069859;28;20063;-69
2023/04/13 10:01:51;;;;;;;1.92;1.20;;;6.40;99.90;;;;;;5070287;28;20043;-66
2023/04/13 10:04:16;;;;;;;4.20;1.63;;;6.50;99.90;;;;;;5069548;28;20032;-69
2023/04/13 10:06:46;;;;;;;5.63;1.20;;;6.50;99.90;;;;;;5071026;28;20052;-69
2023/04/13 10:09:13;;;;;;;3.30;1.45;;;6.50;99.90;;;;;;5069825;28;20037;-70
2023/04/13 10:11:50;;;;;;;2.85;1.60;;;6.50;99.90;;;;;;5064952;28;20075;-70
2023/04/13 10:14:23;;;;;;;4.10;1.40;;;6.60;99.90;;;;;;5070205;28;20059;-70
2023/04/13 10:17:08;;;;;;;2.28;0.98;;;6.50;99.90;;;;;;5050885;22;20042;-75
2023/04/13 10:19:42;;;;;;;1.83;1.25;;;7.00;99.90;;;;;;4958909;28;20057;-75
2023/04/13 10:22:10;;;;;;;1.63;1.30;;;8.20;99.90;;;;;;4980551;28;20038;-76
2023/04/13 10:24:37;;;;;;;3.22;1.20;;;9.10;99.90;;;;;;4966107;28;20039;-76
2023/04/13 10:27:12;;;;;;;1.77;1.13;;;9.60;99.90;;;;;;4973275;28;20046;-76
2023/04/13 10:29:38;;;;;;;1.30;1.20;;;9.80;99.90;;;;;;4967536;28;20038;-76
2023/04/13 10:32:04;;;;;;;1.80;1.30;;;9.90;99.90;;;;;;4979147;28;20541;-76
2023/04/13 10:34:33;;;;;;;4.32;2.05;;;9.90;99.90;;;;;;4977009;28;20042;-78
2023/04/13 10:37:02;;;;;;;3.80;1.88;;;9.80;99.90;;;;;;4985659;28;20514;-78
2023/04/13 10:39:33;;;;;;;3.90;1.90;;;9.60;99.90;;;;;;4961580;28;20039;-79
2023/04/13 10:42:03;;;;;;;3.33;1.80;;;9.30;99.90;;;;;;4955782;28;20069;-79
2023/04/13 10:44:48;;;;;;;4.78;2.22;;;9.10;99.90;;;;;;4965850;28;20064;-78
2023/04/13 10:47:19;;;;;;;5.90;2.08;;;8.80;99.90;;;;;;4979948;28;20337;-78
2023/04/13 10:49:46;;;;;;;7.65;2.95;;;8.70;99.90;;;;;;4955608;28;20033;-78
2023/04/13 10:52:13;;;;;;;5.35;2.17;;;8.50;99.90;;;;;;4963434;28;20046;-78
2023/04/13 10:54:40;;;;;;;8.73;2.38;;;8.40;99.90;;;;;;4966237;28;20041;-78
2023/04/13 10:57:08;;;;;;;6.93;2.13;;;8.40;99.90;;;;;;4958450;28;20054;-75
2023/04/13 10:59:54;;;;;;;8.02;2.67;;;8.50;99.90;;;;;;4969597;28;20042;-74
2023/04/13 11:02:20;;;;;;;7.35;2.40;;;8.50;99.90;;;;;;4940315;28;20034;-76
2023/04/13 11:04:47;;;;;;;9.25;3.28;;;8.70;99.90;;;;;;4923930;28;20178;-76
2023/04/13 11:07:15;;;;;;;6.30;1.92;;;8.90;99.90;;;;;;4949024;28;20495;-74
2023/04/13 11:09:51;;;;;;;7.22;2.00;;;9.00;99.90;;;;;;4934370;28;20081;-75
2023/04/13 11:12:18;;;;;;;8.48;1.90;;;8.90;99.90;;;;;;4931674;28;20574;-75
2023/04/13 11:14:49;;;;;;;5.82;2.35;;;9.00;99.90;;;;;;4934399;28;20042;-76
2023/04/13 11:17:19;;;;;;;7.07;2.30;;;8.90;99.90;;;;;;4938758;28;20492;-75
2023/04/13 11:19:56;;;;;;;9.55;2.38;;;8.90;99.90;;;;;;4939757;28;20053;-75
2023/04/13 11:22:24;;;;;;;7.00;1.98;;;9.00;99.90;;;;;;4935309;28;20634;-75
2023/04/13 11:24:50;;;;;;;5.88;2.90;;;9.10;99.90;;;;;;4939449;28;20038;-75
2023/04/13 11:27:23;;;;;;;5.22;2.70;;;9.20;99.90;;;;;;4939195;28;20038;-75
2023/04/13 11:29:58;;;;;;;;;;;9.20;99.90;;;;;;4964867;28;20035;-75
2023/04/13 11:32:25;;;;;;;6.72;2.22;;;9.20;99.90;;;;;;4953858;28;19926;-74
2023/04/13 11:34:51;;;;;;;10.73;2.50;;;9.20;99.90;;;;;;4932820;28;20137;-75
2023/04/13 11:37:18;;;;;;;10.00;2.45;;;9.20;99.90;;;;;;4942117;28;20858;-75
2023/04/13 11:39:44;;;;;;;7.32;2.30;;;9.20;99.90;;;;;;4944306;28;20458;-75
2023/04/13 11:42:11;;;;;;;11.52;2.60;;;9.20;99.90;;;;;;4973621;28;20046;-75
2023/04/13 11:44:37;;;;;;;6.55;2.40;;;9.20;99.90;;;;;;4943430;28;20053;-75
2023/04/13 11:47:03;;;;;;;7.47;2.25;;;9.30;99.90;;;;;;4944652;28;20128;-75
2023/04/13 11:49:30;;;;;;;9.55;2.80;;;9.30;99.90;;;;;;4929556;28;20511;-75
2023/04/13 11:52:01;;;;;;;10.35;2.08;;;9.40;99.90;;;;;;4957706;28;20499;-75
2023/04/13 11:54:28;;;;;;;12.15;2.60;;;9.50;99.90;;;;;;4946394;28;20404;-76
2023/04/13 11:56:54;;;;;;;8.25;2.28;;;9.50;99.90;;;;;;4943634;28;20039;-75
2023/04/13 11:59:24;;;;;;;7.55;2.25;;;9.80;99.90;;;;;;4956150;28;20044;-75
2023/04/13 12:01:50;;;;;;;7.75;1.98;;;10.00;99.90;;;;;;4956574;28;20038;-75
2023/04/13 12:04:17;;;;;;;8.77;3.17;;;10.30;99.90;;;;;;4941592;28;20389;-76
2023/04/13 12:06:45;;;;;;;9.80;3.03;;;10.30;99.90;;;;;;4939473;28;20044;-75
2023/04/13 12:09:11;;;;;;;5.75;1.77;;;10.00;99.90;;;;;;4941354;28;20046;-75
2023/04/13 12:11:41;;;;;;;7.70;2.08;;;9.90;99.90;;;;;;4953764;28;20133;-75
2023/04/13 12:14:07;;;;;;;7.43;2.33;;;9.70;99.90;;;;;;4924729;28;20042;-75
2023/04/13 12:16:33;;;;;;;12.30;3.03;;;9.50;99.90;;;;;;4937900;28;20050;-76
2023/04/13 12:19:07;;;;;;;12.43;2.58;;;9.30;99.90;;;;;;4924722;28;20104;-75
2023/04/13 12:21:32;;;;;;;10.07;2.45;;;9.10;99.90;;;;;;4937825;28;20050;-76
2023/04/13 12:23:59;;;;;;;10.52;2.53;;;9.00;99.90;;;;;;4953261;28;20038;-76
2023/04/13 12:26:36;;;;;;;7.30;2.10;;;9.00;99.90;;;;;;4969340;28;20038;-76
2023/04/13 12:29:06;;;;;;;4.90;2.03;;;8.90;99.90;;;;;;4924363;28;20092;-75
2023/04/13 12:31:36;;;;;;;6.45;2.17;;;8.90;99.90;;;;;;4956359;28;20054;-75
2023/04/13 12:34:03;;;;;;;4.80;1.83;;;8.90;99.90;;;;;;4949464;28;20082;-74
2023/04/13 12:36:30;;;;;;;8.07;2.28;;;8.90;99.90;;;;;;4953653;28;20069;-74
2023/04/13 12:38:59;;;;;;;11.88;2.35;;;8.90;99.90;;;;;;4935653;28;20034;-74
2023/04/13 12:41:25;;;;;;;8.00;2.00;;;9.00;99.90;;;;;;4954516;28;20046;-75
2023/04/13 12:43:51;;;;;;;4.15;2.08;;;9.10;99.90;;;;;;4954238;28;20038;-74
2023/04/13 12:46:17;;;;;;;7.15;2.30;;;9.30;99.90;;;;;;4942703;28;20097;-74
2023/04/13 12:48:43;;;;;;;6.65;2.25;;;9.30;99.90;;;;;;4968050;28;20038;-75
2023/04/13 12:51:09;;;;;;;8.23;2.20;;;9.30;99.90;;;;;;4941587;28;20042;-74
2023/04/13 12:53:35;;;;;;;7.30;1.95;;;9.20;99.90;;;;;;4952350;28;20038;-74
2023/04/13 12:56:01;;;;;;;5.43;1.88;;;9.20;99.90;;;;;;4971212;28;20053;-74
2023/04/13 12:58:26;;;;;;;12.45;2.65;;;9.10;99.90;;;;;;4954436;28;20042;-74